Time;durP1;ratioP1;P1;durP2;ratioP2;P2;SDS_P1;SDS_P2;PMS_P1;PMS_P2;Temp;Humidity;BMP_temperature;BMP_pressure;BME280_temperature;BME280_humidity;BME280_pressure;Samples;Min_cycle;Max_cycle;Signal;HPM_P1;HPM_P2
2023/01/31 00:01:17;;;;;;;1.10;1.10;;;;;;;19.77;32.02;100153.74;1885143;75;28118;-53
2023/01/31 00:04:08;;;;;;;0.90;0.90;;;;;;;19.76;32.04;100154.80;1878869;75;28258;-50
2023/01/31 00:06:56;;;;;;;0.80;0.80;;;;;;;19.76;32.06;100153.95;1870451;75;28101;-50
2023/01/31 00:09:45;;;;;;;1.00;1.00;;;;;;;19.79;32.01;100150.29;1873676;75;28107;-51
2023/01/31 00:12:33;;;;;;;1.12;1.05;;;;;;;19.78;31.99;100149.98;1885721;75;28148;-50
2023/01/31 00:15:21;;;;;;;1.15;1.05;;;;;;;19.77;32.02;100136.53;1862145;75;28238;-51
2023/01/31 00:18:09;;;;;;;1.00;1.00;;;;;;;19.77;32.03;100141.47;1893524;75;28128;-51
2023/01/31 00:20:58;;;;;;;0.95;0.95;;;;;;;19.77;32.05;100130.57;1867015;75;28154;-56
2023/01/31 00:23:48;;;;;;;0.90;0.90;;;;;;;19.79;32.04;100130.39;1898132;75;28187;-50
2023/01/31 00:26:36;;;;;;;0.80;0.80;;;;;;;19.77;32.04;100134.66;1882545;75;28243;-52
2023/01/31 00:29:25;;;;;;;1.00;1.00;;;;;;;19.77;32.03;100131.94;1882113;75;28205;-54
2023/01/31 00:32:14;;;;;;;0.80;0.80;;;;;;;19.77;32.03;100129.72;1880563;75;28483;-54
2023/01/31 00:35:03;;;;;;;1.07;1.00;;;;;;;19.77;32.02;100130.57;1889230;75;28153;-53
2023/01/31 00:37:51;;;;;;;1.00;1.00;;;;;;;19.77;32.02;100127.84;1866279;75;28137;-51
2023/01/31 00:40:39;;;;;;;0.90;0.90;;;;;;;19.78;32.01;100131.42;1865161;75;28070;-51
2023/01/31 00:43:27;;;;;;;1.47;0.98;;;;;;;19.79;31.96;100131.20;1898317;74;28252;-48
2023/01/31 00:46:16;;;;;;;0.80;0.80;;;;;;;19.77;31.97;100135.17;1885508;75;28201;-49
2023/01/31 00:49:05;;;;;;;0.80;0.80;;;;;;;19.77;31.96;100127.84;1877776;75;28087;-54
2023/01/31 00:51:53;;;;;;;1.40;1.00;;;;;;;19.79;31.95;100130.39;1901001;74;28504;-51
2023/01/31 00:54:41;;;;;;;0.90;0.90;;;;;;;19.78;31.96;100124.61;1878690;75;28264;-54
2023/01/31 00:57:30;;;;;;;0.90;0.90;;;;;;;19.76;31.93;100123.45;1884626;75;28105;-50
2023/01/31 01:00:20;;;;;;;0.90;0.88;;;;;;;19.75;31.92;100117.67;1868196;76;28135;-53
2023/01/31 01:03:09;;;;;;;0.93;0.93;;;;;;;19.77;31.94;100116.09;1890050;75;28470;-53
2023/01/31 01:05:57;;;;;;;0.88;0.88;;;;;;;19.76;31.96;100126.70;1889841;75;28191;-50
2023/01/31 01:08:47;;;;;;;1.22;1.12;;;;;;;19.74;31.99;100121.42;1868256;76;28158;-51
2023/01/31 01:11:36;;;;;;;1.00;1.00;;;;;;;19.76;31.95;100130.78;1889982;75;28251;-52
2023/01/31 01:14:25;;;;;;;0.82;0.82;;;;;;;19.77;31.98;100131.94;1894268;75;28217;-49
2023/01/31 01:17:13;;;;;;;0.90;0.90;;;;;;;19.80;31.93;100129.33;1876693;75;28255;-49
2023/01/31 01:20:02;;;;;;;0.80;0.80;;;;;;;19.78;31.93;100125.97;1869129;75;28112;-52
2023/01/31 01:22:51;;;;;;;0.90;0.90;;;;;;;19.78;31.96;100125.97;1876645;75;28188;-53
2023/01/31 01:25:44;;;;;;;0.87;0.87;;;;;;;19.75;31.96;100124.48;1898140;75;28062;-52
2023/01/31 01:28:34;;;;;;;1.00;1.00;;;;;;;19.73;32.04;100130.66;1871447;75;28307;-53
2023/01/31 01:31:30;;;;;;;1.00;1.00;;;;;;;19.72;32.07;100137.69;1868430;76;28170;-50
2023/01/31 01:34:18;;;;;;;0.90;0.90;;;;;;;19.71;32.27;100138.71;1900386;75;28149;-51
2023/01/31 01:37:18;;;;;;;1.10;1.05;;;;;;;19.73;32.22;100152.98;1900886;75;28201;-50
2023/01/31 01:40:01;;;;;;;1.07;1.07;;;;;;;19.72;32.27;100147.23;1878987;75;28158;-52
2023/01/31 01:42:50;;;;;;;0.80;0.80;;;;;;;19.69;32.35;100147.61;1893447;75;28090;-52
2023/01/31 01:45:39;;;;;;;1.15;1.05;;;;;;;19.72;32.40;100151.31;1879245;75;28139;-52
2023/01/31 01:48:28;;;;;;;0.90;0.90;;;;;;;19.73;32.38;100151.10;1896445;75;28506;-51
2023/01/31 01:51:18;;;;;;;1.00;1.00;;;;;;;19.75;32.39;100157.19;1888927;75;28105;-51
2023/01/31 01:54:10;;;;;;;1.90;0.90;;;;;;;19.74;32.49;100162.31;1878646;75;28264;-51
2023/01/31 01:57:01;;;;;;;0.82;0.82;;;;;;;19.76;32.41;100167.06;1879544;75;28216;-52
2023/01/31 01:59:56;;;;;;;0.90;0.90;;;;;;;19.77;32.47;100167.89;1890500;75;28159;-51
2023/01/31 02:02:48;;;;;;;0.70;0.70;;;;;;;19.73;32.55;100174.27;1889353;75;28150;-49
2023/01/31 02:05:45;;;;;;;0.85;0.85;;;;;;;19.76;32.51;100164.86;1888612;75;28180;-50
2023/01/31 02:08:36;;;;;;;0.90;0.90;;;;;;;19.79;32.53;100175.38;1856681;77;28189;-51
2023/01/31 02:11:28;;;;;;;1.00;0.90;;;;;;;19.80;32.49;100166.13;1863261;75;28178;-54
2023/01/31 02:14:19;;;;;;;0.90;0.90;;;;;;;19.81;32.52;100174.64;1867422;75;28163;-50
2023/01/31 02:17:13;;;;;;;0.90;0.90;;;;;;;19.80;32.56;100182.48;1876688;75;28238;-50
2023/01/31 02:20:28;;;;;;;1.10;1.10;;;;;;;19.79;32.52;100182.19;1862620;75;28045;-49
2023/01/31 02:23:54;;;;;;;0.90;0.90;;;;;;;19.73;32.58;100179.72;1864349;75;28242;-49
2023/01/31 02:27:08;;;;;;;1.10;1.10;;;;;;;19.74;32.54;100179.21;1818074;77;28467;-50
2023/01/31 02:30:23;;;;;;;0.93;0.93;;;;;;;19.71;32.75;100185.05;1818095;78;28325;-49
2023/01/31 02:33:18;;;;;;;1.80;1.10;;;;;;;19.72;32.75;100186.75;1871779;75;28220;-50
2023/01/31 02:36:29;;;;;;;1.00;1.00;;;;;;;19.71;32.77;100193.23;1880157;75;28138;-50
2023/01/31 02:39:29;;;;;;;1.05;1.05;;;;;;;19.73;32.70;100193.35;1867142;75;28078;-53
2023/01/31 02:42:36;;;;;;;1.00;1.00;;;;;;;19.65;32.73;100189.95;1901092;75;28143;-50
2023/01/31 02:45:43;;;;;;;1.40;0.90;;;;;;;19.59;32.83;100199.75;1896523;74;28262;-50
2023/01/31 02:48:50;;;;;;;1.47;0.90;;;;;;;19.59;32.87;100204.34;1871449;75;28577;-52
2023/01/31 02:51:41;;;;;;;1.00;1.00;;;;;;;19.57;32.90;100196.89;1867306;75;28749;-51
2023/01/31 02:56:13;;;;;;;0.90;0.90;;;;;;;19.56;32.89;100201.49;1878455;75;28164;-50
2023/01/31 02:57:25;;;;;;;0.90;0.90;;;;;;;19.56;32.91;100202.00;1882702;75;28860;-51
2023/01/31 03:00:15;;;;;;;0.80;0.80;;;;;;;19.61;32.88;100211.80;1900820;75;28147;-50
2023/01/31 03:03:09;;;;;;;1.10;1.00;;;;;;;19.67;32.81;100215.11;1884755;75;28655;-50
2023/01/31 03:06:13;;;;;;;0.93;0.93;;;;;;;19.64;32.76;100216.86;1883742;75;28061;-53
2023/01/31 03:09:30;;;;;;;1.15;1.00;;;;;;;19.67;32.77;100223.29;1861092;75;28261;-52
2023/01/31 03:12:33;;;;;;;1.00;1.00;;;;;;;19.67;32.70;100225.50;1881996;75;28072;-50
2023/01/31 03:19:03;;;;;;;0.90;0.90;;;;;;;19.68;32.70;100234.50;1873308;75;28060;-51
2023/01/31 03:22:06;;;;;;;2.10;1.00;;;;;;;19.66;32.71;100239.31;1900854;75;28578;-49
2023/01/31 03:24:57;;;;;;;0.90;0.90;;;;;;;19.64;32.73;100243.61;1888097;75;28230;-51
2023/01/31 03:27:51;;;;;;;1.10;1.10;;;;;;;19.64;32.75;100247.70;1892657;75;28264;-53
2023/01/31 03:30:55;;;;;;;1.20;1.10;;;;;;;19.68;32.70;100253.58;1876335;75;28223;-51
2023/01/31 03:33:50;;;;;;;1.10;1.03;;;;;;;19.72;32.68;100257.61;1886521;75;28185;-51
2023/01/31 03:36:48;;;;;;;1.05;1.00;;;;;;;19.69;32.66;100253.40;1872420;75;28244;-53
2023/01/31 03:39:59;;;;;;;1.10;1.10;;;;;;;19.73;32.65;100256.05;1888291;75;28163;-50
2023/01/31 03:42:56;;;;;;;1.10;1.10;;;;;;;19.74;32.66;100262.34;1886770;75;28203;-51
2023/01/31 03:45:54;;;;;;;1.00;1.00;;;;;;;19.74;32.64;100256.89;1855843;76;28319;-54
2023/01/31 03:48:46;;;;;;;1.05;1.05;;;;;;;19.76;32.66;100261.11;1885044;75;28182;-54
2023/01/31 03:51:38;;;;;;;1.02;1.02;;;;;;;19.78;32.61;100264.99;1890604;74;28149;-54
2023/01/31 03:54:30;;;;;;;1.15;1.07;;;;;;;19.76;32.58;100267.08;1880245;75;28549;-53
2023/01/31 03:57:24;;;;;;;1.47;1.37;;;;;;;19.81;32.58;100263.24;1893896;75;28236;-54
2023/01/31 04:00:17;;;;;;;1.30;1.30;;;;;;;19.83;32.56;100269.34;1885088;75;28213;-51
2023/01/31 04:03:16;;;;;;;1.30;1.30;;;;;;;19.85;32.49;100272.70;1894708;75;28243;-50
2023/01/31 04:06:05;;;;;;;1.00;1.00;;;;;;;19.83;32.49;100274.79;1881382;75;28287;-50
2023/01/31 04:08:55;;;;;;;1.00;1.00;;;;;;;19.88;32.44;100276.41;1872700;75;28165;-52
2023/01/31 04:11:45;;;;;;;1.32;1.22;;;;;;;19.89;32.44;100279.44;1879481;75;28890;-53
2023/01/31 04:14:33;;;;;;;1.27;1.12;;;;;;;19.89;32.45;100279.44;1891709;75;28088;-53
2023/01/31 04:17:22;;;;;;;1.20;1.20;;;;;;;19.91;32.42;100277.34;1868372;76;28142;-51
2023/01/31 04:20:12;;;;;;;1.07;1.07;;;;;;;19.96;32.38;100278.45;1887376;75;28231;-51
2023/01/31 04:23:00;;;;;;;1.10;1.10;;;;;;;19.97;32.36;100281.52;1896407;75;28193;-49
2023/01/31 04:25:48;;;;;;;1.10;1.10;;;;;;;20.00;32.34;100288.43;1892080;75;28182;-52
2023/01/31 04:28:37;;;;;;;1.47;1.37;;;;;;;20.01;32.32;100296.95;1880359;75;28231;-49
2023/01/31 04:31:25;;;;;;;1.30;1.20;;;;;;;20.03;32.30;100301.67;1868083;76;28287;-52
2023/01/31 04:34:14;;;;;;;1.15;1.15;;;;;;;20.05;32.27;100305.59;1898010;75;28202;-51
2023/01/31 04:37:02;;;;;;;1.27;1.22;;;;;;;20.08;32.25;100303.30;1897592;75;28148;-52
2023/01/31 04:39:50;;;;;;;0.95;0.95;;;;;;;20.07;32.25;100313.87;1886437;75;28134;-53
2023/01/31 04:42:39;;;;;;;1.22;1.20;;;;;;;20.09;32.27;100320.51;1868355;76;28078;-51
2023/01/31 04:45:27;;;;;;;1.17;1.10;;;;;;;20.12;32.22;100318.76;1871811;75;28152;-51
2023/01/31 04:48:15;;;;;;;1.32;1.22;;;;;;;20.12;32.23;100318.21;1879119;75;28243;-54
2023/01/31 04:51:04;;;;;;;1.00;1.00;;;;;;;20.15;32.21;100326.01;1885135;75;28137;-54
2023/01/31 04:53:52;;;;;;;1.25;1.15;;;;;;;20.17;32.18;100314.89;1868754;76;28235;-50
2023/01/31 04:56:41;;;;;;;1.12;1.12;;;;;;;20.17;32.21;100321.70;1899779;74;28190;-53
2023/01/31 04:59:29;;;;;;;1.07;1.07;;;;;;;20.16;32.25;100320.89;1905395;74;28172;-51
2023/01/31 05:02:18;;;;;;;1.40;1.30;;;;;;;20.17;32.22;100326.65;1882526;74;28040;-50
2023/01/31 05:05:08;;;;;;;1.32;1.22;;;;;;;20.21;32.23;100323.02;1898629;74;28343;-54
2023/01/31 05:07:56;;;;;;;1.40;1.30;;;;;;;20.26;32.17;100326.00;1883013;74;28176;-52
2023/01/31 05:10:44;;;;;;;1.27;1.27;;;;;;;20.28;32.17;100332.95;1890470;74;28120;-52
2023/01/31 05:13:37;;;;;;;1.30;1.30;;;;;;;20.27;32.18;100327.19;1898763;74;28155;-54
2023/01/31 05:16:23;;;;;;;1.40;1.30;;;;;;;20.27;32.24;100330.42;1897496;74;28220;-50
2023/01/31 05:19:13;;;;;;;1.23;1.23;;;;;;;20.28;32.23;100323.39;1901264;74;28181;-54
2023/01/31 05:22:02;;;;;;;1.40;1.30;;;;;;;20.30;32.22;100325.43;1890395;74;28180;-51
2023/01/31 05:24:51;;;;;;;1.30;1.15;;;;;;;20.34;32.18;100331.31;1877170;76;28266;-53
2023/01/31 05:27:40;;;;;;;1.47;1.40;;;;;;;20.35;32.18;100332.47;1886514;74;28235;-50
2023/01/31 05:30:28;;;;;;;1.00;1.00;;;;;;;20.37;32.17;100334.50;1908182;74;28207;-55
2023/01/31 05:33:19;;;;;;;1.30;1.20;;;;;;;20.38;32.16;100333.45;1875103;76;28234;-50
2023/01/31 05:36:08;;;;;;;1.25;1.25;;;;;;;20.40;32.15;100334.08;1889582;74;28093;-55
2023/01/31 05:38:56;;;;;;;1.07;1.07;;;;;;;20.43;32.11;100344.61;1885634;74;28159;-54
2023/01/31 05:41:44;;;;;;;1.50;1.40;;;;;;;20.46;32.10;100345.58;1900783;74;28145;-51
2023/01/31 05:44:32;;;;;;;1.10;1.10;;;;;;;20.50;32.05;100350.95;1894250;74;28149;-54
2023/01/31 05:47:23;;;;;;;1.22;1.17;;;;;;;20.50;32.06;100348.22;1899759;74;28177;-52
2023/01/31 05:50:12;;;;;;;1.12;1.12;;;;;;;20.52;32.07;100352.11;1899757;74;28649;-49
2023/01/31 05:53:04;;;;;;;1.32;1.32;;;;;;;20.56;32.03;100354.23;1899105;74;28105;-50
2023/01/31 05:55:53;;;;;;;1.50;1.40;;;;;;;20.55;32.01;100363.48;1877996;74;28155;-53
2023/01/31 05:58:42;;;;;;;1.07;1.07;;;;;;;20.57;32.03;100370.09;1891450;74;28670;-55
2023/01/31 06:01:30;;;;;;;1.27;1.17;;;;;;;20.58;32.02;100368.52;1865099;76;28301;-50
2023/01/31 06:04:19;;;;;;;1.22;1.20;;;;;;;20.58;32.02;100369.88;1864615;76;28318;-51
2023/01/31 06:07:07;;;;;;;1.30;1.22;;;;;;;20.61;31.99;100374.95;1874108;75;28223;-52
2023/01/31 06:09:56;;;;;;;1.10;1.10;;;;;;;20.68;31.99;100382.36;1877001;75;31183;-53
2023/01/31 06:12:44;;;;;;;1.35;1.20;;;;;;;20.68;31.94;100378.27;1868763;76;28185;-52
2023/01/31 06:15:33;;;;;;;1.87;1.45;;;;;;;20.70;31.98;100393.92;1887481;75;28185;-53
2023/01/31 06:18:22;;;;;;;1.50;1.40;;;;;;;20.72;31.82;100388.58;1900899;75;28114;-51
2023/01/31 06:21:10;;;;;;;1.47;1.37;;;;;;;20.74;31.76;100392.46;1879122;75;28200;-56
2023/01/31 06:23:59;;;;;;;1.60;1.50;;;;;;;20.76;31.71;100384.39;1879325;75;28139;-54
2023/01/31 06:26:47;;;;;;;1.40;1.30;;;;;;;20.76;31.73;100384.39;1900861;75;28159;-54
2023/01/31 06:29:35;;;;;;;1.65;1.47;;;;;;;20.78;31.70;100380.94;1880005;75;28206;-54
2023/01/31 06:32:23;;;;;;;1.40;1.30;;;;;;;20.81;31.64;100389.25;1867988;75;28358;-55
2023/01/31 06:35:12;;;;;;;1.50;1.40;;;;;;;20.84;31.62;100391.04;1887268;75;28172;-52
2023/01/31 06:38:00;;;;;;;1.35;1.30;;;;;;;20.85;31.62;100385.91;1900355;75;28236;-54
2023/01/31 06:40:49;;;;;;;1.60;1.50;;;;;;;20.87;31.55;100389.28;1878802;75;28141;-53
2023/01/31 06:43:37;;;;;;;1.50;1.40;;;;;;;20.88;31.57;100399.69;1879402;75;28182;-54
2023/01/31 06:46:25;;;;;;;1.50;1.50;;;;;;;20.89;31.57;100399.48;1881524;75;28177;-55
2023/01/31 06:49:14;;;;;;;1.40;1.30;;;;;;;20.88;31.63;100403.78;1895433;74;28137;-55
2023/01/31 06:52:02;;;;;;;1.50;1.40;;;;;;;20.90;31.61;100402.55;1878356;75;28149;-51
2023/01/31 06:54:50;;;;;;;2.17;2.08;;;;;;;20.95;31.48;100405.52;1883434;75;28169;-53
2023/01/31 06:57:47;;;;;;;1.60;1.50;;;;;;;20.91;31.09;100415.14;1885720;75;28233;-55
2023/01/31 07:00:35;;;;;;;2.25;1.90;;;;;;;20.91;31.11;100423.33;1882577;75;28175;-54
2023/01/31 07:03:24;;;;;;;2.22;1.70;;;;;;;20.89;31.11;100424.57;1900907;75;28164;-55
2023/01/31 07:06:12;;;;;;;1.87;1.77;;;;;;;20.88;31.21;100431.09;1898261;75;28109;-54
2023/01/31 07:09:01;;;;;;;2.30;1.70;;;;;;;20.87;31.21;100430.77;1886776;75;28152;-55
2023/01/31 07:11:49;;;;;;;1.60;1.50;;;;;;;20.87;31.19;100433.49;1881289;75;28259;-53
2023/01/31 07:14:37;;;;;;;1.70;1.60;;;;;;;20.88;31.23;100435.19;1892515;75;28390;-51
2023/01/31 07:17:25;;;;;;;1.60;1.50;;;;;;;20.93;31.20;100447.22;1878458;75;28221;-55
2023/01/31 07:20:14;;;;;;;1.62;1.52;;;;;;;20.96;31.17;100454.13;1883493;75;28216;-50
2023/01/31 07:23:02;;;;;;;1.80;1.70;;;;;;;20.95;31.20;100451.95;1868108;76;28324;-53
2023/01/31 07:25:50;;;;;;;1.32;1.30;;;;;;;20.95;31.28;100453.83;1879717;75;28164;-53
2023/01/31 07:28:39;;;;;;;1.77;1.67;;;;;;;20.91;31.34;100451.19;1880215;75;28227;-54
2023/01/31 07:31:27;;;;;;;1.50;1.40;;;;;;;20.91;31.45;100454.73;1868176;76;28202;-51
2023/01/31 07:34:17;;;;;;;1.60;1.50;;;;;;;20.93;31.47;100460.02;1899376;75;28182;-56
2023/01/31 07:37:06;;;;;;;1.90;1.67;;;;;;;20.95;31.49;100464.23;1899988;75;28164;-54
2023/01/31 07:39:54;;;;;;;1.72;1.62;;;;;;;20.95;31.54;100468.85;1900450;75;28293;-56
2023/01/31 07:42:42;;;;;;;1.70;1.60;;;;;;;20.95;31.55;100466.97;1868452;76;28300;-54
2023/01/31 07:45:31;;;;;;;1.70;1.60;;;;;;;20.98;31.59;100473.92;1868354;76;28625;-54
2023/01/31 07:48:22;;;;;;;1.80;1.70;;;;;;;21.02;31.60;100480.66;1890896;75;28052;-51
2023/01/31 07:51:11;;;;;;;5.60;1.90;;;;;;;21.02;31.56;100480.66;1883483;75;28091;-60
2023/01/31 07:53:59;;;;;;;1.72;1.62;;;;;;;20.89;31.71;100484.66;1881769;75;28142;-59
2023/01/31 07:56:48;;;;;;;1.72;1.62;;;;;;;20.82;31.88;100485.98;1878175;75;28117;-59
2023/01/31 07:59:36;;;;;;;1.40;1.40;;;;;;;20.77;32.05;100495.83;1885623;75;28262;-61
2023/01/31 08:05:31;;;;;;;2.87;1.57;;;;;;;20.97;31.84;100502.27;1867889;76;28138;-59
2023/01/31 08:08:19;;;;;;;1.70;1.60;;;;;;;20.97;31.78;100507.73;1890077;75;28200;-59
2023/01/31 08:11:08;;;;;;;1.70;1.60;;;;;;;21.05;31.69;100513.91;1856058;75;28224;-59
2023/01/31 08:13:57;;;;;;;1.80;1.62;;;;;;;21.10;31.66;100513.30;1901086;75;28158;-59
2023/01/31 08:16:45;;;;;;;1.50;1.45;;;;;;;21.11;31.58;100513.12;1856854;77;31153;-59
2023/01/31 08:19:35;;;;;;;1.60;1.50;;;;;;;21.07;31.60;100521.41;1884718;75;28274;-59
2023/01/31 08:22:23;;;;;;;1.82;1.72;;;;;;;21.11;31.58;100517.73;1874672;75;28253;-59
2023/01/31 08:25:11;;;;;;;1.73;1.63;;;;;;;21.10;31.57;100521.50;1872790;75;28239;-59
2023/01/31 08:28:00;;;;;;;1.70;1.60;;;;;;;21.13;31.56;100525.20;1888644;75;28138;-60
2023/01/31 08:30:49;;;;;;;1.70;1.60;;;;;;;21.15;31.52;100529.95;1888951;75;28236;-59
2023/01/31 08:33:38;;;;;;;1.50;1.40;;;;;;;21.18;31.51;100535.02;1860792;75;28348;-58
2023/01/31 08:36:35;;;;;;;1.35;1.25;;;;;;;21.15;31.48;100539.50;1868496;76;28276;-60
2023/01/31 08:39:18;;;;;;;1.65;1.55;;;;;;;21.12;31.53;100544.03;1856991;77;28196;-60
2023/01/31 08:42:07;;;;;;;1.50;1.45;;;;;;;21.15;31.48;100541.72;1890437;75;28472;-61
2023/01/31 08:44:55;;;;;;;1.62;1.52;;;;;;;21.18;31.50;100541.84;1876945;75;28579;-61
2023/01/31 08:47:43;;;;;;;1.70;1.52;;;;;;;21.17;31.50;100548.34;1868700;76;38445;-59
2023/01/31 08:50:32;;;;;;;1.80;1.70;;;;;;;21.16;31.48;100551.63;1890531;75;28182;-59
2023/01/31 08:53:21;;;;;;;1.50;1.45;;;;;;;21.19;31.48;100546.28;1878551;75;28161;-60
2023/01/31 08:56:11;;;;;;;1.80;1.70;;;;;;;21.17;31.49;100546.98;1876678;75;28133;-59
2023/01/31 08:58:59;;;;;;;1.87;1.60;;;;;;;21.20;31.42;100545.22;1883465;75;32153;-61
2023/01/31 09:01:48;;;;;;;1.50;1.40;;;;;;;21.18;31.45;100544.58;1879164;74;28367;-59
2023/01/31 09:04:36;;;;;;;1.72;1.62;;;;;;;21.18;31.45;100551.41;1891151;75;28119;-59
2023/01/31 09:07:24;;;;;;;1.42;1.32;;;;;;;21.19;31.47;100554.48;1871595;75;28307;-60
2023/01/31 09:10:13;;;;;;;1.55;1.45;;;;;;;21.23;31.43;100560.71;1856996;77;28181;-61
2023/01/31 09:13:01;;;;;;;1.60;1.52;;;;;;;21.21;31.39;100555.12;1884534;75;28127;-60
2023/01/31 09:16:08;;;;;;;1.60;1.50;;;;;;;21.20;31.46;100556.16;1901427;75;28109;-60
2023/01/31 09:18:57;;;;;;;1.65;1.40;;;;;;;21.24;31.42;100558.80;1889376;75;28138;-61
2023/01/31 09:21:45;;;;;;;1.70;1.60;;;;;;;21.22;31.43;100559.52;1856998;77;28213;-61
2023/01/31 09:24:33;;;;;;;1.30;1.30;;;;;;;21.21;31.45;100562.77;1869060;76;28267;-61
2023/01/31 09:27:22;;;;;;;1.67;1.57;;;;;;;21.22;31.40;100567.20;1890757;75;28105;-61
2023/01/31 09:30:12;;;;;;;2.00;1.72;;;;;;;21.26;31.41;100567.66;1886658;75;28105;-61
2023/01/31 09:33:00;;;;;;;1.50;1.40;;;;;;;21.27;31.29;100570.19;1869308;75;28201;-59
2023/01/31 09:36:02;;;;;;;1.70;1.60;;;;;;;21.26;31.41;100575.86;1901504;75;28208;-59
2023/01/31 09:38:55;;;;;;;1.55;1.45;;;;;;;21.28;31.34;100566.94;1862571;75;28268;-59
2023/01/31 09:41:56;;;;;;;1.70;1.60;;;;;;;21.26;31.41;100579.97;1901417;75;28149;-59
2023/01/31 09:44:46;;;;;;;1.60;1.50;;;;;;;21.27;31.37;100574.80;1889069;75;28698;-59
2023/01/31 09:47:38;;;;;;;1.80;1.50;;;;;;;21.27;31.41;100581.63;1868593;76;28172;-59
2023/01/31 09:50:38;;;;;;;1.65;1.55;;;;;;;21.24;31.35;100577.41;1897300;75;29240;-61
2023/01/31 09:53:29;;;;;;;1.60;1.50;;;;;;;21.23;31.43;100580.35;1885862;75;28105;-61
2023/01/31 09:56:44;;;;;;;1.37;1.37;;;;;;;21.26;31.40;100579.97;1878097;75;28172;-61
2023/01/31 09:59:56;;;;;;;1.72;1.62;;;;;;;21.26;31.42;100578.59;1847691;77;28404;-60
2023/01/31 10:03:17;;;;;;;1.40;1.37;;;;;;;21.24;31.42;100581.51;1889715;75;28240;-61
2023/01/31 10:06:25;;;;;;;1.45;1.40;;;;;;;21.22;31.46;100583.60;1891004;75;34023;-61
2023/01/31 10:09:34;;;;;;;2.12;1.50;;;;;;;21.21;31.47;100581.89;1901278;75;28236;-60
2023/01/31 10:12:32;;;;;;;1.57;1.47;;;;;;;21.25;31.43;100583.73;1901263;75;28247;-60
2023/01/31 10:15:26;;;;;;;1.80;1.67;;;;;;;21.24;31.46;100581.51;1884346;75;28172;-59
2023/01/31 10:18:23;;;;;;;1.67;1.40;;;;;;;21.19;31.42;100571.69;1868730;76;28241;-60
2023/01/31 10:21:20;;;;;;;1.77;1.67;;;;;;;21.28;31.41;100572.41;1876108;75;28133;-60
2023/01/31 10:24:14;;;;;;;1.80;1.70;;;;;;;21.29;31.37;100565.87;1897755;75;28160;-59
2023/01/31 10:27:09;;;;;;;1.90;1.80;;;;;;;21.29;31.38;100556.31;1889161;75;28179;-61
2023/01/31 10:29:59;;;;;;;1.70;1.60;;;;;;;21.28;31.36;100554.64;1868471;76;28118;-60
2023/01/31 10:32:54;;;;;;;1.60;1.50;;;;;;;21.27;31.33;100554.31;1879209;75;28201;-60
2023/01/31 10:35:44;;;;;;;1.80;1.70;;;;;;;21.32;31.35;100558.14;1881571;75;28183;-60
2023/01/31 10:38:42;;;;;;;1.70;1.57;;;;;;;21.33;31.34;100557.62;1890672;75;28654;-59
2023/01/31 10:41:42;;;;;;;1.62;1.52;;;;;;;21.34;31.30;100555.20;1886899;75;28128;-60
2023/01/31 10:44:45;;;;;;;1.55;1.45;;;;;;;21.32;31.32;100565.48;1885828;75;28273;-60
2023/01/31 10:47:38;;;;;;;1.85;1.75;;;;;;;21.29;31.34;100554.43;1874923;75;28153;-60
2023/01/31 10:50:35;;;;;;;1.80;1.70;;;;;;;21.29;31.33;100549.48;1901306;75;28154;-61
2023/01/31 10:53:33;;;;;;;1.70;1.60;;;;;;;21.32;31.31;100553.19;1897393;75;28168;-61
2023/01/31 10:56:36;;;;;;;1.55;1.45;;;;;;;21.32;31.33;100555.92;1891011;74;28180;-61
2023/01/31 10:59:33;;;;;;;1.62;1.52;;;;;;;21.33;31.30;100553.52;1881388;75;28126;-61
2023/01/31 11:02:24;;;;;;;2.00;1.90;;;;;;;21.33;31.31;100541.23;1870567;75;28164;-61
2023/01/31 11:05:22;;;;;;;2.10;1.63;;;;;;;21.33;31.35;100532.48;1907451;74;28248;-60
2023/01/31 11:08:31;;;;;;;1.80;1.70;;;;;;;21.35;31.27;100528.20;1901535;74;28220;-61
2023/01/31 11:11:22;;;;;;;1.70;1.55;;;;;;;21.34;31.29;100515.05;1897839;74;28252;-59
2023/01/31 11:14:13;;;;;;;1.80;1.70;;;;;;;21.34;31.26;100523.77;1878270;74;28181;-61
2023/01/31 11:17:05;;;;;;;1.98;1.80;;;;;;;21.33;31.28;100504.33;1892225;74;28232;-61
2023/01/31 11:19:57;;;;;;;1.87;1.70;;;;;;;21.38;31.23;100497.71;1876018;76;28189;-61
2023/01/31 11:22:47;;;;;;;1.90;1.80;;;;;;;21.39;31.24;100484.89;1877765;76;28218;-59
2023/01/31 11:25:36;;;;;;;1.87;1.77;;;;;;;21.36;31.24;100486.14;1898854;74;28215;-60
2023/01/31 11:28:28;;;;;;;1.80;1.70;;;;;;;21.38;31.23;100474.48;1891711;74;28137;-61
2023/01/31 11:31:19;;;;;;;1.70;1.60;;;;;;;21.39;31.19;100462.52;1875994;76;28169;-59
2023/01/31 11:34:23;;;;;;;1.87;1.77;;;;;;;21.40;31.21;100461.99;1897707;74;28333;-59
2023/01/31 11:37:17;;;;;;;1.70;1.60;;;;;;;21.40;31.18;100454.61;1902067;74;28204;-60
2023/01/31 11:40:21;;;;;;;1.77;1.67;;;;;;;21.38;31.20;100444.41;1907551;74;28129;-60
2023/01/31 11:43:25;;;;;;;1.85;1.75;;;;;;;21.40;31.18;100437.40;1875119;76;28199;-61
2023/01/31 11:46:13;;;;;;;1.70;1.60;;;;;;;21.40;31.16;100445.05;1891675;74;28144;-60
2023/01/31 11:49:04;;;;;;;1.98;1.87;;;;;;;21.41;31.17;100437.18;1875047;76;28283;-60
2023/01/31 11:51:53;;;;;;;2.03;1.90;;;;;;;21.41;31.20;100425.40;1809559;78;28398;-60
2023/01/31 11:54:47;;;;;;;1.92;1.82;;;;;;;21.44;31.12;100428.58;1898237;75;28286;-59
2023/01/31 11:57:39;;;;;;;2.00;1.90;;;;;;;21.43;31.12;100415.95;1898575;75;28108;-59
2023/01/31 12:00:30;;;;;;;1.85;1.75;;;;;;;21.45;31.10;100413.84;1877530;75;28139;-59
2023/01/31 12:03:19;;;;;;;1.90;1.80;;;;;;;21.47;31.10;100416.40;1859541;75;28288;-59
2023/01/31 12:06:10;;;;;;;1.82;1.72;;;;;;;21.48;31.09;100409.87;1888312;75;28242;-60
2023/01/31 12:09:01;;;;;;;1.90;1.80;;;;;;;21.50;31.07;100407.25;1884085;75;28154;-60
2023/01/31 12:11:59;;;;;;;1.75;1.65;;;;;;;21.49;31.04;100400.11;1880366;75;28117;-60
2023/01/31 12:14:48;;;;;;;2.00;1.90;;;;;;;21.46;31.05;100400.52;1879199;75;28126;-60
2023/01/31 12:17:40;;;;;;;2.30;2.10;;;;;;;21.42;31.12;100391.05;1867484;75;28177;-60
2023/01/31 12:20:46;;;;;;;2.25;2.08;;;;;;;21.44;31.11;100383.48;1882349;75;28161;-59
2023/01/31 12:23:52;;;;;;;2.12;1.95;;;;;;;21.46;31.08;100377.80;1868631;76;28222;-60
2023/01/31 12:26:49;;;;;;;2.10;2.00;;;;;;;21.43;31.16;100373.58;1806686;78;28454;-59
2023/01/31 12:30:03;;;;;;;1.77;1.67;;;;;;;21.41;31.13;100374.83;1852666;75;28196;-60
2023/01/31 12:32:55;;;;;;;1.80;1.70;;;;;;;21.42;31.15;100373.28;1867471;75;28197;-60
2023/01/31 12:35:58;;;;;;;1.80;1.70;;;;;;;21.39;31.15;100360.02;1863045;75;28164;-59
2023/01/31 12:38:52;;;;;;;2.10;2.00;;;;;;;21.41;31.16;100362.53;1867352;75;28213;-59
2023/01/31 12:41:52;;;;;;;2.08;1.98;;;;;;;21.41;31.13;100351.09;1881374;75;28301;-60
2023/01/31 12:44:47;;;;;;;1.90;1.80;;;;;;;21.42;31.14;100356.03;1886878;75;28205;-59
2023/01/31 12:47:47;;;;;;;1.87;1.77;;;;;;;21.42;31.13;100345.95;1862303;75;28154;-59
2023/01/31 12:50:59;;;;;;;1.98;1.87;;;;;;;21.45;31.15;100346.06;1901532;75;28205;-60
2023/01/31 12:53:53;;;;;;;2.33;1.98;;;;;;;21.49;31.04;100340.50;1893617;75;28315;-59
2023/01/31 12:57:03;;;;;;;2.08;1.98;;;;;;;21.45;31.11;100338.68;1873257;75;28166;-59
2023/01/31 12:59:54;;;;;;;1.97;1.87;;;;;;;21.45;31.11;100336.50;1889107;75;28205;-59
2023/01/31 13:02:55;;;;;;;1.90;1.80;;;;;;;21.40;31.14;100334.36;1889162;75;28161;-60
2023/01/31 13:05:55;;;;;;;1.90;1.80;;;;;;;21.43;31.12;100331.22;1874489;75;28274;-61
2023/01/31 13:08:52;;;;;;;2.00;1.90;;;;;;;21.46;31.08;100330.81;1868642;76;28168;-59
2023/01/31 13:12:01;;;;;;;2.17;2.00;;;;;;;21.45;31.07;100326.38;1873815;75;28143;-59
2023/01/31 13:15:17;;;;;;;2.08;1.98;;;;;;;21.43;31.11;100320.28;1901485;75;28109;-59
2023/01/31 13:18:06;;;;;;;2.10;2.00;;;;;;;21.44;31.11;100312.41;1889143;75;28125;-59
2023/01/31 13:21:01;;;;;;;2.10;1.90;;;;;;;21.43;31.11;100313.97;1879587;75;28112;-59
2023/01/31 13:23:55;;;;;;;2.10;1.90;;;;;;;21.45;31.10;100309.17;1867874;75;28154;-59
2023/01/31 13:27:02;;;;;;;2.10;2.00;;;;;;;21.45;31.11;100299.05;1873874;75;28192;-59
2023/01/31 13:29:58;;;;;;;2.10;2.00;;;;;;;21.48;31.08;100296.42;1883254;75;28358;-60